sensor_id;sensor_type;location;lat;lon;timestamp;pressure;altitude;pressure_sealevel;temperature;humidity
21234;BME280;10774;42.178;26.578;2022-11-18T00:00:14;99024.16;;;8.45;100.00
21234;BME280;10774;42.178;26.578;2022-11-18T00:02:39;99034.06;;;8.43;100.00
21234;BME280;10774;42.178;26.578;2022-11-18T00:05:05;99036.63;;;8.19;100.00
21234;BME280;10774;42.178;26.578;2022-11-18T00:07:30;99029.13;;;8.24;100.00
21234;BME280;10774;42.178;26.578;2022-11-18T00:09:56;99033.66;;;8.36;100.00
21234;BME280;10774;42.178;26.578;2022-11-18T00:12:21;99035.81;;;8.44;100.00
21234;BME280;10774;42.178;26.578;2022-11-18T00:15:05;99017.94;;;8.44;100.00
21234;BME280;10774;42.178;26.578;2022-11-18T00:17:31;99002.19;;;8.52;100.00
21234;BME280;10774;42.178;26.578;2022-11-18T00:19:56;99023.16;;;8.71;100.00
21234;BME280;10774;42.178;26.578;2022-11-18T00:22:22;99028.72;;;8.81;100.00
21234;BME280;10774;42.178;26.578;2022-11-18T00:24:47;99029.56;;;8.18;100.00
21234;BME280;10774;42.178;26.578;2022-11-18T00:27:13;99031.47;;;8.03;100.00
21234;BME280;10774;42.178;26.578;2022-11-18T00:29:38;99054.31;;;7.94;100.00
21234;BME280;10774;42.178;26.578;2022-11-18T00:32:04;99051.66;;;7.67;100.00
21234;BME280;10774;42.178;26.578;2022-11-18T00:34:29;99022.25;;;7.27;100.00
21234;BME280;10774;42.178;26.578;2022-11-18T00:36:55;99034.28;;;7.47;100.00
21234;BME280;10774;42.178;26.578;2022-11-18T00:39:20;99020.94;;;7.47;100.00
21234;BME280;10774;42.178;26.578;2022-11-18T00:41:47;99034.16;;;7.22;100.00
21234;BME280;10774;42.178;26.578;2022-11-18T00:44:35;99037.56;;;7.65;100.00
21234;BME280;10774;42.178;26.578;2022-11-18T00:47:02;99025.41;;;7.20;100.00
21234;BME280;10774;42.178;26.578;2022-11-18T00:49:27;99033.31;;;7.48;100.00
21234;BME280;10774;42.178;26.578;2022-11-18T00:51:53;99043.13;;;7.75;100.00
21234;BME280;10774;42.178;26.578;2022-11-18T00:54:18;99033.91;;;7.93;100.00
21234;BME280;10774;42.178;26.578;2022-11-18T00:56:43;99051.38;;;7.72;100.00
21234;BME280;10774;42.178;26.578;2022-11-18T00:59:09;99042.88;;;7.92;100.00
21234;BME280;10774;42.178;26.578;2022-11-18T01:01:34;99040.66;;;8.11;100.00
21234;BME280;10774;42.178;26.578;2022-11-18T01:04:00;99016.94;;;8.07;100.00
21234;BME280;10774;42.178;26.578;2022-11-18T01:06:26;99013.38;;;8.06;100.00
21234;BME280;10774;42.178;26.578;2022-11-18T01:08:51;99041.06;;;8.05;100.00
21234;BME280;10774;42.178;26.578;2022-11-18T01:11:17;99031.47;;;8.03;100.00
21234;BME280;10774;42.178;26.578;2022-11-18T01:14:01;99033.59;;;7.98;100.00
21234;BME280;10774;42.178;26.578;2022-11-18T01:16:27;99028.34;;;7.56;100.00
21234;BME280;10774;42.178;26.578;2022-11-18T01:18:54;99022.00;;;7.45;100.00
21234;BME280;10774;42.178;26.578;2022-11-18T01:21:19;99017.00;;;7.26;100.00
21234;BME280;10774;42.178;26.578;2022-11-18T01:23:46;99019.75;;;7.39;100.00
21234;BME280;10774;42.178;26.578;2022-11-18T01:26:13;99025.22;;;7.23;100.00
21234;BME280;10774;42.178;26.578;2022-11-18T01:28:39;99017.66;;;7.56;100.00
21234;BME280;10774;42.178;26.578;2022-11-18T01:31:07;98996.53;;;7.66;100.00
21234;BME280;10774;42.178;26.578;2022-11-18T01:33:33;99024.72;;;7.97;100.00
21234;BME280;10774;42.178;26.578;2022-11-18T01:35:59;99009.50;;;7.85;100.00
21234;BME280;10774;42.178;26.578;2022-11-18T01:38:25;99026.44;;;8.11;100.00
21234;BME280;10774;42.178;26.578;2022-11-18T01:40:52;98994.34;;;7.98;100.00
21234;BME280;10774;42.178;26.578;2022-11-18T01:43:19;99012.88;;;8.14;100.00
21234;BME280;10774;42.178;26.578;2022-11-18T01:45:47;99017.78;;;8.33;100.00
21234;BME280;10774;42.178;26.578;2022-11-18T01:50:58;99027.88;;;8.42;100.00
21234;BME280;10774;42.178;26.578;2022-11-18T01:53:30;99028.75;;;8.55;100.00
21234;BME280;10774;42.178;26.578;2022-11-18T01:55:58;99017.50;;;8.50;100.00
21234;BME280;10774;42.178;26.578;2022-11-18T01:58:29;99023.19;;;8.46;100.00
21234;BME280;10774;42.178;26.578;2022-11-18T02:00:57;99030.88;;;8.50;100.00
21234;BME280;10774;42.178;26.578;2022-11-18T02:03:24;99022.41;;;8.56;100.00
21234;BME280;10774;42.178;26.578;2022-11-18T02:05:51;99030.00;;;8.62;100.00
21234;BME280;10774;42.178;26.578;2022-11-18T02:08:18;99022.09;;;8.48;100.00
21234;BME280;10774;42.178;26.578;2022-11-18T02:10:44;99028.31;;;8.61;100.00
21234;BME280;10774;42.178;26.578;2022-11-18T02:13:10;99013.66;;;8.54;100.00
21234;BME280;10774;42.178;26.578;2022-11-18T02:18:36;99039.75;;;8.63;100.00
21234;BME280;10774;42.178;26.578;2022-11-18T02:21:19;99039.66;;;8.65;100.00
21234;BME280;10774;42.178;26.578;2022-11-18T02:29:27;99034.53;;;8.49;100.00
21234;BME280;10774;42.178;26.578;2022-11-18T02:31:59;99023.50;;;7.76;100.00
21234;BME280;10774;42.178;26.578;2022-11-18T02:37:44;99023.28;;;7.79;100.00
21234;BME280;10774;42.178;26.578;2022-11-18T02:42:45;99010.69;;;7.81;100.00
21234;BME280;10774;42.178;26.578;2022-11-18T02:45:16;99017.59;;;7.71;100.00
21234;BME280;10774;42.178;26.578;2022-11-18T02:47:45;99014.84;;;7.85;100.00
21234;BME280;10774;42.178;26.578;2022-11-18T02:50:14;99011.34;;;8.10;100.00
21234;BME280;10774;42.178;26.578;2022-11-18T02:52:44;98999.69;;;8.11;100.00
21234;BME280;10774;42.178;26.578;2022-11-18T02:55:12;99016.59;;;8.11;100.00
21234;BME280;10774;42.178;26.578;2022-11-18T02:57:39;99024.09;;;8.32;100.00
21234;BME280;10774;42.178;26.578;2022-11-18T03:00:05;99010.53;;;8.35;100.00
21234;BME280;10774;42.178;26.578;2022-11-18T03:02:46;99007.31;;;8.30;100.00
21234;BME280;10774;42.178;26.578;2022-11-18T03:05:36;99030.03;;;8.50;100.00
21234;BME280;10774;42.178;26.578;2022-11-18T03:08:11;99013.22;;;8.48;100.00
21234;BME280;10774;42.178;26.578;2022-11-18T03:10:51;99018.25;;;8.52;100.00
21234;BME280;10774;42.178;26.578;2022-11-18T03:13:23;99019.75;;;8.56;100.00
21234;BME280;10774;42.178;26.578;2022-11-18T03:16:06;99040.69;;;8.75;100.00
21234;BME280;10774;42.178;26.578;2022-11-18T03:18:52;99047.94;;;8.99;100.00
21234;BME280;10774;42.178;26.578;2022-11-18T03:24:24;99037.59;;;8.69;100.00
21234;BME280;10774;42.178;26.578;2022-11-18T03:26:57;99021.41;;;8.32;100.00
21234;BME280;10774;42.178;26.578;2022-11-18T03:29:34;99033.34;;;7.88;100.00
21234;BME280;10774;42.178;26.578;2022-11-18T03:32:14;99026.09;;;7.50;100.00
21234;BME280;10774;42.178;26.578;2022-11-18T03:34:45;99020.78;;;7.36;100.00
21234;BME280;10774;42.178;26.578;2022-11-18T03:37:15;99035.88;;;7.77;100.00
21234;BME280;10774;42.178;26.578;2022-11-18T03:39:49;99008.69;;;7.03;100.00
21234;BME280;10774;42.178;26.578;2022-11-18T03:42:23;99015.44;;;7.36;100.00
21234;BME280;10774;42.178;26.578;2022-11-18T03:44:53;99013.84;;;7.60;100.00
21234;BME280;10774;42.178;26.578;2022-11-18T03:47:32;99022.06;;;8.10;100.00
21234;BME280;10774;42.178;26.578;2022-11-18T03:50:04;99027.97;;;8.28;100.00
21234;BME280;10774;42.178;26.578;2022-11-18T03:52:34;99018.53;;;7.97;100.00
21234;BME280;10774;42.178;26.578;2022-11-18T03:55:07;99025.09;;;7.78;100.00
21234;BME280;10774;42.178;26.578;2022-11-18T03:57:55;99029.28;;;7.95;100.00
21234;BME280;10774;42.178;26.578;2022-11-18T04:00:25;99030.91;;;8.10;100.00
21234;BME280;10774;42.178;26.578;2022-11-18T04:02:52;99044.47;;;7.95;100.00
21234;BME280;10774;42.178;26.578;2022-11-18T04:05:18;99031.91;;;7.70;100.00
21234;BME280;10774;42.178;26.578;2022-11-18T04:07:56;99027.53;;;7.69;100.00
21234;BME280;10774;42.178;26.578;2022-11-18T04:10:42;99033.00;;;7.40;100.00
21234;BME280;10774;42.178;26.578;2022-11-18T04:13:32;99029.50;;;7.52;100.00
21234;BME280;10774;42.178;26.578;2022-11-18T04:15:59;99021.75;;;7.75;100.00
21234;BME280;10774;42.178;26.578;2022-11-18T04:18:25;99042.94;;;7.78;100.00
21234;BME280;10774;42.178;26.578;2022-11-18T04:20:51;99039.78;;;7.58;100.00
21234;BME280;10774;42.178;26.578;2022-11-18T04:23:16;99045.56;;;7.38;100.00
21234;BME280;10774;42.178;26.578;2022-11-18T04:25:42;99043.03;;;7.22;100.00
21234;BME280;10774;42.178;26.578;2022-11-18T04:28:07;99028.94;;;7.47;100.00
21234;BME280;10774;42.178;26.578;2022-11-18T04:30:33;99037.47;;;7.67;100.00
21234;BME280;10774;42.178;26.578;2022-11-18T04:32:58;99061.13;;;7.85;100.00
21234;BME280;10774;42.178;26.578;2022-11-18T04:35:24;99049.00;;;7.40;100.00
21234;BME280;10774;42.178;26.578;2022-11-18T04:37:50;99050.16;;;7.63;100.00
21234;BME280;10774;42.178;26.578;2022-11-18T04:40:16;99056.06;;;7.41;100.00
21234;BME280;10774;42.178;26.578;2022-11-18T04:42:41;99047.63;;;7.74;100.00
21234;BME280;10774;42.178;26.578;2022-11-18T04:45:07;99033.53;;;7.72;100.00
21234;BME280;10774;42.178;26.578;2022-11-18T04:47:33;99047.69;;;7.87;100.00
21234;BME280;10774;42.178;26.578;2022-11-18T04:49:58;99059.09;;;7.89;100.00
21234;BME280;10774;42.178;26.578;2022-11-18T04:52:24;99047.06;;;7.96;100.00
21234;BME280;10774;42.178;26.578;2022-11-18T04:54:49;99032.44;;;7.75;100.00
21234;BME280;10774;42.178;26.578;2022-11-18T04:57:14;99049.84;;;7.68;100.00
21234;BME280;10774;42.178;26.578;2022-11-18T04:59:40;99060.53;;;7.41;100.00
21234;BME280;10774;42.178;26.578;2022-11-18T05:02:05;99049.53;;;7.59;100.00
21234;BME280;10774;42.178;26.578;2022-11-18T05:04:33;99064.31;;;7.78;100.00
21234;BME280;10774;42.178;26.578;2022-11-18T05:07:00;99053.97;;;7.86;100.00
21234;BME280;10774;42.178;26.578;2022-11-18T05:09:26;99059.97;;;7.63;100.00
21234;BME280;10774;42.178;26.578;2022-11-18T05:11:52;99050.75;;;7.81;100.00
21234;BME280;10774;42.178;26.578;2022-11-18T05:14:36;99059.03;;;8.03;100.00
21234;BME280;10774;42.178;26.578;2022-11-18T05:17:04;99029.03;;;7.73;100.00
21234;BME280;10774;42.178;26.578;2022-11-18T05:19:30;99058.25;;;8.01;100.00
21234;BME280;10774;42.178;26.578;2022-11-18T05:21:55;99061.38;;;7.68;100.00
21234;BME280;10774;42.178;26.578;2022-11-18T05:24:21;99048.78;;;7.97;100.00
21234;BME280;10774;42.178;26.578;2022-11-18T05:26:49;99048.28;;;7.78;100.00
21234;BME280;10774;42.178;26.578;2022-11-18T05:29:17;99048.16;;;7.40;100.00
21234;BME280;10774;42.178;26.578;2022-11-18T05:31:43;99039.44;;;7.50;100.00
21234;BME280;10774;42.178;26.578;2022-11-18T05:34:08;99047.31;;;7.79;100.00
21234;BME280;10774;42.178;26.578;2022-11-18T05:36:34;99051.78;;;6.97;100.00
21234;BME280;10774;42.178;26.578;2022-11-18T05:38:59;99055.59;;;7.34;100.00
21234;BME280;10774;42.178;26.578;2022-11-18T05:41:25;99041.81;;;7.55;100.00
21234;BME280;10774;42.178;26.578;2022-11-18T05:44:09;99040.97;;;7.54;100.00
21234;BME280;10774;42.178;26.578;2022-11-18T05:46:35;99059.72;;;7.80;100.00
21234;BME280;10774;42.178;26.578;2022-11-18T05:49:00;99067.53;;;7.83;100.00
21234;BME280;10774;42.178;26.578;2022-11-18T05:51:25;99068.88;;;8.03;100.00
21234;BME280;10774;42.178;26.578;2022-11-18T05:53:51;99080.34;;;8.30;100.00
21234;BME280;10774;42.178;26.578;2022-11-18T05:58:42;99067.13;;;7.89;100.00
21234;BME280;10774;42.178;26.578;2022-11-18T06:01:08;99073.84;;;7.55;100.00
21234;BME280;10774;42.178;26.578;2022-11-18T06:03:37;99072.31;;;7.10;100.00
21234;BME280;10774;42.178;26.578;2022-11-18T06:06:06;99049.44;;;7.05;100.00
21234;BME280;10774;42.178;26.578;2022-11-18T06:08:37;99066.91;;;7.38;100.00
21234;BME280;10774;42.178;26.578;2022-11-18T06:11:04;99076.41;;;7.56;100.00
21234;BME280;10774;42.178;26.578;2022-11-18T06:13:39;99057.13;;;7.66;100.00
21234;BME280;10774;42.178;26.578;2022-11-18T06:16:06;99064.66;;;7.32;100.00
21234;BME280;10774;42.178;26.578;2022-11-18T06:18:32;99055.06;;;7.56;100.00
21234;BME280;10774;42.178;26.578;2022-11-18T06:21:03;99060.28;;;7.31;100.00
21234;BME280;10774;42.178;26.578;2022-11-18T06:23:32;99055.91;;;7.16;100.00
21234;BME280;10774;42.178;26.578;2022-11-18T06:25:59;99058.75;;;7.27;100.00
21234;BME280;10774;42.178;26.578;2022-11-18T06:28:25;99042.38;;;7.33;100.00
21234;BME280;10774;42.178;26.578;2022-11-18T06:30:52;99076.69;;;7.79;100.00
21234;BME280;10774;42.178;26.578;2022-11-18T06:33:17;99085.56;;;7.79;100.00
21234;BME280;10774;42.178;26.578;2022-11-18T06:35:43;99072.69;;;7.86;100.00
21234;BME280;10774;42.178;26.578;2022-11-18T06:38:08;99078.56;;;7.91;100.00
21234;BME280;10774;42.178;26.578;2022-11-18T06:40:34;99085.09;;;7.60;100.00
21234;BME280;10774;42.178;26.578;2022-11-18T06:43:07;99062.16;;;7.70;100.00
21234;BME280;10774;42.178;26.578;2022-11-18T06:45:51;99071.47;;;7.50;100.00
21234;BME280;10774;42.178;26.578;2022-11-18T06:48:36;99077.53;;;7.67;100.00
21234;BME280;10774;42.178;26.578;2022-11-18T06:51:05;99056.06;;;7.41;100.00
21234;BME280;10774;42.178;26.578;2022-11-18T06:53:32;99061.94;;;7.73;100.00
21234;BME280;10774;42.178;26.578;2022-11-18T06:56:02;99073.13;;;8.05;100.00
21234;BME280;10774;42.178;26.578;2022-11-18T06:58:28;99067.25;;;8.40;100.00
21234;BME280;10774;42.178;26.578;2022-11-18T07:00:53;99060.84;;;8.55;100.00
21234;BME280;10774;42.178;26.578;2022-11-18T07:03:18;99042.75;;;8.46;100.00
21234;BME280;10774;42.178;26.578;2022-11-18T07:05:44;99071.06;;;8.23;100.00
21234;BME280;10774;42.178;26.578;2022-11-18T07:08:09;99061.72;;;8.03;100.00
21234;BME280;10774;42.178;26.578;2022-11-18T07:10:35;99066.50;;;7.98;100.00
21234;BME280;10774;42.178;26.578;2022-11-18T07:13:00;99059.91;;;8.17;100.00
21234;BME280;10774;42.178;26.578;2022-11-18T07:15:26;99076.81;;;8.30;100.00
21234;BME280;10774;42.178;26.578;2022-11-18T07:17:51;99073.75;;;8.49;100.00
21234;BME280;10774;42.178;26.578;2022-11-18T07:20:17;99079.22;;;8.73;100.00
21234;BME280;10774;42.178;26.578;2022-11-18T07:22:42;99049.59;;;8.37;100.00
21234;BME280;10774;42.178;26.578;2022-11-18T07:25:08;99081.91;;;8.47;100.00
21234;BME280;10774;42.178;26.578;2022-11-18T07:27:34;99087.72;;;8.27;100.00
21234;BME280;10774;42.178;26.578;2022-11-18T07:29:59;99080.72;;;8.38;100.00
21234;BME280;10774;42.178;26.578;2022-11-18T07:32:25;99088.63;;;8.40;100.00
21234;BME280;10774;42.178;26.578;2022-11-18T07:34:50;99086.69;;;8.42;100.00
21234;BME280;10774;42.178;26.578;2022-11-18T07:37:15;99082.44;;;8.52;100.00
21234;BME280;10774;42.178;26.578;2022-11-18T07:39:41;99069.69;;;8.43;100.00
21234;BME280;10774;42.178;26.578;2022-11-18T07:42:08;99067.91;;;8.56;100.00
21234;BME280;10774;42.178;26.578;2022-11-18T07:44:33;99077.81;;;8.80;100.00
21234;BME280;10774;42.178;26.578;2022-11-18T07:46:59;99077.75;;;8.56;100.00
21234;BME280;10774;42.178;26.578;2022-11-18T07:49:24;99078.59;;;8.82;100.00
21234;BME280;10774;42.178;26.578;2022-11-18T07:51:49;99081.56;;;8.64;100.00
21234;BME280;10774;42.178;26.578;2022-11-18T07:54:15;99067.69;;;8.59;100.00
21234;BME280;10774;42.178;26.578;2022-11-18T07:56:42;99100.53;;;8.87;100.00
21234;BME280;10774;42.178;26.578;2022-11-18T07:59:07;99063.56;;;9.05;100.00
21234;BME280;10774;42.178;26.578;2022-11-18T08:01:33;99093.25;;;9.02;100.00
21234;BME280;10774;42.178;26.578;2022-11-18T08:04:10;99068.25;;;9.14;100.00
21234;BME280;10774;42.178;26.578;2022-11-18T08:06:36;99076.56;;;9.35;100.00
21234;BME280;10774;42.178;26.578;2022-11-18T08:09:04;99047.63;;;9.40;100.00
21234;BME280;10774;42.178;26.578;2022-11-18T08:11:29;99045.91;;;9.87;100.00
21234;BME280;10774;42.178;26.578;2022-11-18T08:13:55;99072.28;;;10.28;100.00
21234;BME280;10774;42.178;26.578;2022-11-18T08:16:23;99052.47;;;10.64;100.00
21234;BME280;10774;42.178;26.578;2022-11-18T08:18:49;99059.78;;;11.07;100.00
21234;BME280;10774;42.178;26.578;2022-11-18T08:21:15;99055.63;;;10.69;100.00
21234;BME280;10774;42.178;26.578;2022-11-18T08:23:41;99026.72;;;10.84;100.00
21234;BME280;10774;42.178;26.578;2022-11-18T08:26:10;99061.22;;;11.45;100.00
21234;BME280;10774;42.178;26.578;2022-11-18T08:28:36;99061.63;;;11.72;100.00
21234;BME280;10774;42.178;26.578;2022-11-18T08:31:10;99055.69;;;11.58;100.00
21234;BME280;10774;42.178;26.578;2022-11-18T08:33:35;99046.69;;;11.47;100.00
21234;BME280;10774;42.178;26.578;2022-11-18T08:36:06;99072.09;;;11.98;100.00
21234;BME280;10774;42.178;26.578;2022-11-18T08:38:32;99069.75;;;11.39;100.00
21234;BME280;10774;42.178;26.578;2022-11-18T08:40:57;99060.50;;;11.32;100.00
21234;BME280;10774;42.178;26.578;2022-11-18T08:43:23;99066.28;;;11.70;100.00
21234;BME280;10774;42.178;26.578;2022-11-18T08:45:48;99069.31;;;11.77;100.00
21234;BME280;10774;42.178;26.578;2022-11-18T08:48:13;99074.63;;;11.56;100.00
21234;BME280;10774;42.178;26.578;2022-11-18T08:50:39;99065.66;;;11.23;100.00
21234;BME280;10774;42.178;26.578;2022-11-18T08:53:04;99057.09;;;10.96;100.00
21234;BME280;10774;42.178;26.578;2022-11-18T08:55:30;99043.47;;;10.88;100.00
21234;BME280;10774;42.178;26.578;2022-11-18T08:57:55;99054.19;;;11.10;100.00
21234;BME280;10774;42.178;26.578;2022-11-18T09:00:20;99034.09;;;11.48;100.00
21234;BME280;10774;42.178;26.578;2022-11-18T09:02:46;99035.69;;;11.94;100.00
21234;BME280;10774;42.178;26.578;2022-11-18T09:05:11;99044.84;;;11.91;100.00
21234;BME280;10774;42.178;26.578;2022-11-18T09:07:37;99027.41;;;11.74;100.00
21234;BME280;10774;42.178;26.578;2022-11-18T09:10:02;99014.22;;;11.83;100.00
21234;BME280;10774;42.178;26.578;2022-11-18T09:12:28;99024.88;;;12.05;100.00
21234;BME280;10774;42.178;26.578;2022-11-18T09:14:53;99016.59;;;12.39;100.00
21234;BME280;10774;42.178;26.578;2022-11-18T09:17:19;99007.56;;;12.40;100.00
21234;BME280;10774;42.178;26.578;2022-11-18T09:19:44;98996.34;;;12.65;100.00
21234;BME280;10774;42.178;26.578;2022-11-18T09:22:09;99018.78;;;12.75;100.00
21234;BME280;10774;42.178;26.578;2022-11-18T09:24:35;99014.31;;;12.55;100.00
21234;BME280;10774;42.178;26.578;2022-11-18T09:27:02;98987.22;;;12.26;100.00
21234;BME280;10774;42.178;26.578;2022-11-18T09:29:29;98999.88;;;12.14;100.00
21234;BME280;10774;42.178;26.578;2022-11-18T09:31:54;99002.50;;;12.25;100.00
21234;BME280;10774;42.178;26.578;2022-11-18T09:34:20;99005.25;;;11.93;100.00
21234;BME280;10774;42.178;26.578;2022-11-18T09:36:45;99027.56;;;12.26;100.00
21234;BME280;10774;42.178;26.578;2022-11-18T09:39:11;98999.22;;;12.22;100.00
21234;BME280;10774;42.178;26.578;2022-11-18T09:41:45;99009.06;;;12.12;100.00
21234;BME280;10774;42.178;26.578;2022-11-18T09:49:18;98988.78;;;12.28;100.00
21234;BME280;10774;42.178;26.578;2022-11-18T09:51:48;98994.56;;;12.45;100.00
21234;BME280;10774;42.178;26.578;2022-11-18T09:54:26;98978.47;;;12.64;100.00
21234;BME280;10774;42.178;26.578;2022-11-18T09:56:54;98989.25;;;12.64;100.00
21234;BME280;10774;42.178;26.578;2022-11-18T09:59:23;98974.72;;;12.46;100.00
21234;BME280;10774;42.178;26.578;2022-11-18T10:01:50;98991.34;;;12.81;100.00
21234;BME280;10774;42.178;26.578;2022-11-18T10:04:19;98987.97;;;12.99;100.00
21234;BME280;10774;42.178;26.578;2022-11-18T10:06:45;98995.47;;;13.26;100.00
21234;BME280;10774;42.178;26.578;2022-11-18T10:09:29;98990.22;;;12.94;100.00
21234;BME280;10774;42.178;26.578;2022-11-18T10:15:18;98985.09;;;12.91;100.00
21234;BME280;10774;42.178;26.578;2022-11-18T10:23:20;98966.09;;;12.82;100.00
21234;BME280;10774;42.178;26.578;2022-11-18T10:25:47;98962.41;;;12.83;100.00
21234;BME280;10774;42.178;26.578;2022-11-18T10:30:43;98948.41;;;12.59;100.00
21234;BME280;10774;42.178;26.578;2022-11-18T10:33:24;98953.19;;;12.76;100.00
21234;BME280;10774;42.178;26.578;2022-11-18T10:36:08;98957.47;;;12.89;100.00
21234;BME280;10774;42.178;26.578;2022-11-18T10:38:33;98948.03;;;13.04;100.00
21234;BME280;10774;42.178;26.578;2022-11-18T10:41:01;98965.34;;;13.21;100.00
21234;BME280;10774;42.178;26.578;2022-11-18T10:43:54;98959.72;;;13.24;100.00
21234;BME280;10774;42.178;26.578;2022-11-18T10:46:31;98959.19;;;13.59;100.00
21234;BME280;10774;42.178;26.578;2022-11-18T10:49:12;98946.13;;;13.64;100.00
21234;BME280;10774;42.178;26.578;2022-11-18T10:51:40;98949.09;;;13.42;100.00
21234;BME280;10774;42.178;26.578;2022-11-18T10:59:53;98952.38;;;13.65;100.00
21234;BME280;10774;42.178;26.578;2022-11-18T11:02:31;98939.03;;;13.82;100.00
21234;BME280;10774;42.178;26.578;2022-11-18T11:04:58;98928.50;;;14.08;100.00
21234;BME280;10774;42.178;26.578;2022-11-18T11:07:45;98916.38;;;14.22;100.00
21234;BME280;10774;42.178;26.578;2022-11-18T11:10:20;98924.47;;;14.69;100.00
21234;BME280;10774;42.178;26.578;2022-11-18T11:12:55;98912.22;;;14.75;100.00
21234;BME280;10774;42.178;26.578;2022-11-18T11:15:40;98913.31;;;14.45;100.00
21234;BME280;10774;42.178;26.578;2022-11-18T11:18:18;98906.66;;;14.49;100.00
21234;BME280;10774;42.178;26.578;2022-11-18T11:21:14;98926.06;;;14.62;100.00
21234;BME280;10774;42.178;26.578;2022-11-18T11:23:41;98917.06;;;14.99;100.00
21234;BME280;10774;42.178;26.578;2022-11-18T11:29:04;98904.59;;;15.33;100.00
21234;BME280;10774;42.178;26.578;2022-11-18T11:39:53;98887.16;;;15.46;100.00
21234;BME280;10774;42.178;26.578;2022-11-18T11:42:29;98875.38;;;16.16;100.00
21234;BME280;10774;42.178;26.578;2022-11-18T11:50:59;98870.19;;;16.65;100.00
21234;BME280;10774;42.178;26.578;2022-11-18T12:07:00;98849.88;;;17.12;100.00
21234;BME280;10774;42.178;26.578;2022-11-18T12:17:54;98805.97;;;18.45;100.00
21234;BME280;10774;42.178;26.578;2022-11-18T12:23:25;98810.59;;;18.84;100.00
21234;BME280;10774;42.178;26.578;2022-11-18T12:30:49;98796.69;;;18.79;100.00
21234;BME280;10774;42.178;26.578;2022-11-18T12:33:16;98813.53;;;19.05;100.00
21234;BME280;10774;42.178;26.578;2022-11-18T12:35:47;98801.06;;;18.88;100.00
21234;BME280;10774;42.178;26.578;2022-11-18T12:38:29;98789.06;;;18.35;100.00
21234;BME280;10774;42.178;26.578;2022-11-18T12:40:55;98788.88;;;17.89;100.00
21234;BME280;10774;42.178;26.578;2022-11-18T12:48:51;98763.66;;;18.90;100.00
21234;BME280;10774;42.178;26.578;2022-11-18T12:53:47;98786.44;;;18.89;100.00
21234;BME280;10774;42.178;26.578;2022-11-18T13:01:13;98769.06;;;19.59;99.50
21234;BME280;10774;42.178;26.578;2022-11-18T13:03:40;98772.28;;;19.63;99.01
21234;BME280;10774;42.178;26.578;2022-11-18T13:06:27;98785.00;;;19.85;99.08
21234;BME280;10774;42.178;26.578;2022-11-18T13:09:03;98787.34;;;20.18;97.09
21234;BME280;10774;42.178;26.578;2022-11-18T13:11:31;98777.00;;;20.28;94.79
21234;BME280;10774;42.178;26.578;2022-11-18T13:17:29;98778.34;;;19.27;100.00
21234;BME280;10774;42.178;26.578;2022-11-18T13:20:28;98779.31;;;19.72;100.00
21234;BME280;10774;42.178;26.578;2022-11-18T13:23:29;98774.75;;;20.02;100.00
21234;BME280;10774;42.178;26.578;2022-11-18T13:26:26;98768.84;;;20.43;97.39
21234;BME280;10774;42.178;26.578;2022-11-18T13:34:19;98764.94;;;20.67;94.44
21234;BME280;10774;42.178;26.578;2022-11-18T13:36:46;98771.28;;;20.67;92.34
21234;BME280;10774;42.178;26.578;2022-11-18T13:42:06;98759.00;;;20.56;93.21
21234;BME280;10774;42.178;26.578;2022-11-18T13:44:36;98758.13;;;20.56;92.68
21234;BME280;10774;42.178;26.578;2022-11-18T13:47:14;98749.22;;;20.47;93.38
21234;BME280;10774;42.178;26.578;2022-11-18T13:49:54;98758.31;;;20.54;93.18
21234;BME280;10774;42.178;26.578;2022-11-18T13:52:28;98745.72;;;20.53;94.50
21234;BME280;10774;42.178;26.578;2022-11-18T13:54:55;98749.38;;;20.60;95.83
21234;BME280;10774;42.178;26.578;2022-11-18T13:57:23;98743.47;;;20.57;94.99
21234;BME280;10774;42.178;26.578;2022-11-18T13:59:51;98732.16;;;20.60;93.32
21234;BME280;10774;42.178;26.578;2022-11-18T14:02:19;98748.50;;;20.75;91.92
21234;BME280;10774;42.178;26.578;2022-11-18T14:04:51;98727.00;;;20.50;91.70
21234;BME280;10774;42.178;26.578;2022-11-18T14:09:57;98743.38;;;20.50;93.46
21234;BME280;10774;42.178;26.578;2022-11-18T14:12:31;98738.44;;;20.46;93.30
21234;BME280;10774;42.178;26.578;2022-11-18T14:17:57;98723.28;;;20.22;94.79
21234;BME280;10774;42.178;26.578;2022-11-18T14:20:26;98723.97;;;20.09;95.63
21234;BME280;10774;42.178;26.578;2022-11-18T14:22:57;98723.88;;;19.73;96.40
21234;BME280;10774;42.178;26.578;2022-11-18T14:25:30;98716.41;;;19.29;98.49
21234;BME280;10774;42.178;26.578;2022-11-18T14:28:12;98716.09;;;19.09;100.00
21234;BME280;10774;42.178;26.578;2022-11-18T14:33:36;98701.78;;;18.61;100.00
21234;BME280;10774;42.178;26.578;2022-11-18T14:36:14;98718.81;;;18.55;100.00
21234;BME280;10774;42.178;26.578;2022-11-18T14:38:44;98722.13;;;18.42;100.00
21234;BME280;10774;42.178;26.578;2022-11-18T14:41:12;98736.22;;;18.38;100.00
21234;BME280;10774;42.178;26.578;2022-11-18T14:43:38;98734.72;;;18.35;100.00
21234;BME280;10774;42.178;26.578;2022-11-18T14:46:15;98732.75;;;18.21;100.00
21234;BME280;10774;42.178;26.578;2022-11-18T14:48:42;98731.59;;;18.07;100.00
21234;BME280;10774;42.178;26.578;2022-11-18T14:51:14;98725.72;;;17.95;100.00
21234;BME280;10774;42.178;26.578;2022-11-18T14:53:40;98740.34;;;17.86;100.00
21234;BME280;10774;42.178;26.578;2022-11-18T14:56:13;98723.72;;;17.81;100.00
21234;BME280;10774;42.178;26.578;2022-11-18T14:58:42;98731.72;;;17.74;100.00
21234;BME280;10774;42.178;26.578;2022-11-18T15:01:10;98726.97;;;17.68;100.00
21234;BME280;10774;42.178;26.578;2022-11-18T15:03:35;98722.56;;;17.59;100.00